Time;durP1;ratioP1;P1;durP2;ratioP2;P2;SDS_P1;SDS_P2;PMS_P1;PMS_P2;Temp;Humidity;BMP_temperature;BMP_pressure;BME280_temperature;BME280_humidity;BME280_pressure;Samples;Min_cycle;Max_cycle;Signal;HPM_P1;HPM_P2
2021/09/11 00:00:36;;;;;;;37.88;20.42;;;12.10;99.90;;;;;;4878453;29;20706;-91
2021/09/11 00:03:02;;;;;;;38.97;20.23;;;;;;;;;;4897743;29;20236;-91
2021/09/11 00:05:28;;;;;;;34.90;20.00;;;;;;;;;;4911166;29;20272;-90
2021/09/11 00:07:54;;;;;;;34.83;20.08;;;;;;;;;;4881607;29;20202;-90
2021/09/11 00:10:21;;;;;;;34.83;19.10;;;11.90;99.90;;;;;;4881016;29;20272;-92
2021/09/11 00:12:47;;;;;;;41.10;19.80;;;12.00;99.90;;;;;;4880880;29;20736;-90
2021/09/11 00:15:15;;;;;;;37.72;19.92;;;12.00;99.90;;;;;;4881435;29;20212;-91
2021/09/11 00:17:42;;;;;;;35.83;20.40;;;12.40;99.90;;;;;;4883962;29;20275;-91
2021/09/11 00:20:09;;;;;;;34.85;19.48;;;11.90;99.90;;;;;;4907433;29;20193;-92
2021/09/11 00:22:35;;;;;;;31.38;18.77;;;12.20;99.90;;;;;;4878242;29;20655;-93
2021/09/11 00:25:03;;;;;;;38.38;19.27;;;;;;;;;;4870567;29;20197;-91
2021/09/11 00:27:28;;;;;;;31.58;19.60;;;12.20;99.90;;;;;;4899374;29;20209;-91
2021/09/11 00:29:54;;;;;;;33.72;19.98;;;;;;;;;;4881195;29;20201;-92
2021/09/11 00:32:20;;;;;;;36.22;19.80;;;;;;;;;;4874930;29;20196;-90
2021/09/11 00:34:46;;;;;;;34.10;20.13;;;;;;;;;;4882790;29;20204;-88
2021/09/11 00:37:12;;;;;;;36.42;19.33;;;12.20;99.90;;;;;;4882570;29;20535;-91
2021/09/11 00:39:38;;;;;;;39.08;20.52;;;;;;;;;;4898553;29;20189;-92
2021/09/11 00:42:04;;;;;;;34.17;20.55;;;12.10;99.90;;;;;;4898630;29;20193;-92
2021/09/11 00:44:30;;;;;;;33.38;19.48;;;;;;;;;;4876189;29;20193;-90
2021/09/11 00:46:56;;;;;;;37.13;20.65;;;11.70;99.90;;;;;;4871560;29;20212;-91
2021/09/11 00:49:22;;;;;;;39.35;20.15;;;11.80;99.90;;;;;;4900207;29;20260;-92
2021/09/11 00:51:48;;;;;;;34.00;20.35;;;11.70;99.90;;;;;;4883728;29;20189;-91
2021/09/11 00:54:14;;;;;;;34.88;20.25;;;11.80;99.90;;;;;;4908033;29;20200;-91
2021/09/11 00:56:40;;;;;;;41.58;19.75;;;12.10;99.90;;;;;;4884925;29;20291;-91
2021/09/11 00:59:06;;;;;;;31.30;19.13;;;;;;;;;;4897898;29;20750;-90
2021/09/11 01:01:32;;;;;;;31.70;19.80;;;11.80;99.90;;;;;;4898747;29;20189;-88
2021/09/11 01:03:58;;;;;;;36.58;18.48;;;11.70;99.90;;;;;;4933625;29;20221;-89
2021/09/11 01:06:24;;;;;;;30.77;18.70;;;11.70;99.90;;;;;;4911768;29;20232;-90
2021/09/11 01:08:52;;;;;;;31.73;18.42;;;11.70;99.90;;;;;;4880007;29;20201;-88
2021/09/11 01:11:18;;;;;;;33.47;18.15;;;11.60;99.90;;;;;;4896762;29;20189;-91
2021/09/11 01:13:44;;;;;;;34.53;18.35;;;11.90;99.90;;;;;;4880004;29;20189;-91
2021/09/11 01:16:11;;;;;;;28.50;17.33;;;11.50;99.90;;;;;;4896843;29;20397;-92
2021/09/11 01:18:37;;;;;;;34.10;18.05;;;11.70;99.90;;;;;;4906927;29;20250;-91
2021/09/11 01:21:03;;;;;;;31.35;19.10;;;11.60;99.90;;;;;;4898781;29;20193;-91
2021/09/11 01:23:30;;;;;;;33.38;18.90;;;11.40;99.90;;;;;;4897588;29;20181;-92
2021/09/11 01:25:56;;;;;;;31.70;18.17;;;11.30;99.90;;;;;;4896282;29;20218;-91
2021/09/11 01:28:23;;;;;;;33.70;18.65;;;11.80;99.90;;;;;;4896289;29;20182;-90
2021/09/11 01:30:49;;;;;;;37.70;20.70;;;;;;;;;;4879554;29;20190;-89
2021/09/11 01:33:15;;;;;;;43.28;21.27;;;11.50;99.90;;;;;;4895868;29;20204;-91
2021/09/11 01:35:41;;;;;;;36.30;20.10;;;11.70;99.90;;;;;;4896629;29;20544;-92
2021/09/11 01:38:07;;;;;;;41.70;20.38;;;;;;;;;;4864189;29;20205;-92
2021/09/11 01:40:33;;;;;;;39.70;19.65;;;11.60;99.90;;;;;;4880027;29;20195;-92
2021/09/11 01:42:59;;;;;;;31.13;18.95;;;11.30;99.90;;;;;;4896394;29;20208;-91
2021/09/11 01:45:25;;;;;;;32.28;18.45;;;;;;;;;;4896300;29;20671;-91
2021/09/11 01:47:51;;;;;;;34.30;17.45;;;11.40;99.90;;;;;;4892728;29;20236;-91
2021/09/11 01:50:20;;;;;;;34.60;19.10;;;11.00;99.90;;;;;;4895677;29;20724;-91
2021/09/11 01:52:47;;;;;;;32.95;18.30;;;11.50;99.90;;;;;;4879463;29;20285;-91
2021/09/11 01:55:14;;;;;;;30.73;17.63;;;11.30;99.90;;;;;;4878950;29;20213;-91
2021/09/11 01:57:41;;;;;;;32.78;17.27;;;11.30;99.90;;;;;;4896129;29;20189;-90
2021/09/11 02:00:11;;;;;;;31.50;19.00;;;11.20;99.90;;;;;;4880237;29;20647;-91
2021/09/11 02:02:37;;;;;;;33.13;17.80;;;11.50;99.90;;;;;;4899242;29;20402;-90
2021/09/11 02:05:05;;;;;;;33.37;18.30;;;11.20;99.90;;;;;;4906923;29;20705;-90
2021/09/11 02:07:31;;;;;;;35.10;18.08;;;11.60;99.90;;;;;;4899635;29;20300;-89
2021/09/11 02:09:57;;;;;;;28.40;17.45;;;11.30;99.90;;;;;;4867022;29;20285;-89
2021/09/11 02:12:23;;;;;;;28.42;17.63;;;11.20;99.90;;;;;;4899411;29;20201;-91
2021/09/11 02:14:49;;;;;;;34.42;18.33;;;;;;;;;;4874900;29;20541;-90
2021/09/11 02:17:15;;;;;;;32.30;18.00;;;11.50;99.90;;;;;;4882070;29;20199;-89
2021/09/11 02:19:40;;;;;;;31.03;17.13;;;11.10;99.90;;;;;;4895254;29;20192;-91
2021/09/11 02:22:09;;;;;;;28.85;16.65;;;11.20;99.90;;;;;;4874705;29;20602;-90
2021/09/11 02:24:35;;;;;;;31.85;17.45;;;11.40;99.90;;;;;;4882137;29;20600;-90
2021/09/11 02:27:01;;;;;;;34.43;18.57;;;11.30;99.90;;;;;;4898725;29;20684;-90
2021/09/11 02:29:27;;;;;;;37.90;18.15;;;;;;;;;;4881745;29;20200;-90
2021/09/11 02:31:52;;;;;;;31.67;17.33;;;11.30;99.90;;;;;;4871154;29;20220;-91
2021/09/11 02:34:18;;;;;;;27.93;16.50;;;;;;;;;;4887458;29;20644;-90
2021/09/11 02:36:44;;;;;;;29.50;18.27;;;;;;;;;;4869226;29;20235;-91
2021/09/11 02:39:10;;;;;;;30.73;17.17;;;11.10;99.90;;;;;;4898652;29;20221;-91
2021/09/11 02:41:36;;;;;;;30.52;18.08;;;10.60;99.90;;;;;;4882227;29;20785;-90
2021/09/11 02:44:03;;;;;;;24.70;16.13;;;11.30;99.90;;;;;;4898727;29;20197;-90
2021/09/11 02:46:30;;;;;;;31.92;18.90;;;11.30;99.90;;;;;;4881936;29;20311;-90
2021/09/11 02:48:56;;;;;;;28.83;16.93;;;11.50;99.90;;;;;;4898705;29;20782;-91
2021/09/11 02:51:24;;;;;;;27.53;17.07;;;11.00;99.90;;;;;;4898378;29;20193;-91
2021/09/11 02:53:50;;;;;;;30.60;16.93;;;11.00;99.90;;;;;;4881766;29;20646;-91
2021/09/11 02:56:16;;;;;;;35.45;18.77;;;;;;;;;;4866159;29;20224;-90
2021/09/11 02:58:41;;;;;;;31.55;16.92;;;11.30;99.90;;;;;;4880365;29;20193;-90
2021/09/11 03:01:07;;;;;;;33.05;17.88;;;;;;;;;;4898890;29;20546;-91
2021/09/11 03:03:33;;;;;;;30.70;18.33;;;11.00;99.90;;;;;;4881663;29;20280;-90
2021/09/11 03:05:59;;;;;;;28.92;17.65;;;;;;;;;;4889789;29;20644;-90
2021/09/11 03:08:25;;;;;;;32.00;17.58;;;10.70;99.90;;;;;;4877805;29;20603;-90
2021/09/11 03:10:51;;;;;;;29.63;17.87;;;;;;;;;;4911551;29;20190;-93
2021/09/11 03:13:16;;;;;;;29.37;18.07;;;10.90;99.90;;;;;;4882979;29;20189;-91
2021/09/11 03:15:42;;;;;;;32.50;18.30;;;;;;;;;;4881339;29;20196;-92
2021/09/11 03:18:08;;;;;;;32.37;17.47;;;10.70;99.90;;;;;;4929625;29;20256;-90
2021/09/11 03:20:34;;;;;;;30.27;17.37;;;11.30;99.90;;;;;;4896209;29;20210;-90
2021/09/11 03:23:01;;;;;;;28.93;17.40;;;;;;;;;;4902172;29;20193;-92
2021/09/11 03:25:27;;;;;;;33.90;17.67;;;10.90;99.90;;;;;;4876000;29;20197;-92
2021/09/11 03:27:53;;;;;;;27.88;16.73;;;;;;;;;;4895477;29;20273;-91
2021/09/11 03:30:18;;;;;;;28.35;16.35;;;10.70;99.90;;;;;;4909770;29;20217;-91
2021/09/11 03:32:44;;;;;;;31.92;17.92;;;10.80;99.90;;;;;;4882558;29;20284;-93
2021/09/11 03:35:10;;;;;;;30.10;16.83;;;;;;;;;;4898732;29;20193;-91
2021/09/11 03:37:36;;;;;;;33.50;17.10;;;10.70;99.90;;;;;;4881700;29;20322;-89
2021/09/11 03:40:02;;;;;;;34.85;17.35;;;;;;;;;;4881420;29;20346;-91
2021/09/11 03:42:27;;;;;;;28.80;17.23;;;10.60;99.90;;;;;;4905857;29;20197;-91
2021/09/11 03:44:53;;;;;;;27.90;16.83;;;;;;;;;;4887326;29;20197;-90
2021/09/11 03:47:20;;;;;;;32.80;18.07;;;;;;;;;;4899235;29;20221;-90
2021/09/11 03:49:45;;;;;;;29.67;16.93;;;11.00;99.90;;;;;;4898171;29;20193;-90
2021/09/11 03:52:11;;;;;;;32.13;17.20;;;10.30;99.90;;;;;;4880210;29;20256;-91
2021/09/11 03:54:37;;;;;;;31.27;17.10;;;;;;;;;;4864648;29;20554;-91
2021/09/11 03:57:03;;;;;;;29.37;16.97;;;10.50;99.90;;;;;;4880462;29;20203;-91
2021/09/11 03:59:29;;;;;;;31.57;18.27;;;10.80;99.90;;;;;;4879529;29;20193;-91
2021/09/11 04:01:54;;;;;;;35.73;18.63;;;;;;;;;;4881458;29;20200;-90
2021/09/11 04:04:21;;;;;;;30.73;18.40;;;;;;;;;;4901504;29;20654;-91
2021/09/11 04:06:46;;;;;;;28.38;17.50;;;10.70;99.90;;;;;;4886517;29;20224;-90
2021/09/11 04:09:12;;;;;;;40.10;18.27;;;10.90;99.90;;;;;;4896019;29;20197;-90
2021/09/11 04:11:38;;;;;;;30.57;16.43;;;;;;;;;;4880855;29;20663;-90
2021/09/11 04:14:03;;;;;;;40.10;17.23;;;10.80;99.90;;;;;;4898738;29;20532;-92
2021/09/11 04:16:29;;;;;;;31.37;18.20;;;;;;;;;;4899100;29;20197;-91
2021/09/11 04:18:55;;;;;;;33.87;17.97;;;10.70;99.90;;;;;;4898601;29;20648;-91
2021/09/11 04:21:21;;;;;;;32.30;18.03;;;;;;;;;;4880685;29;20206;-92
2021/09/11 04:23:47;;;;;;;37.83;18.27;;;10.60;99.90;;;;;;4902421;29;20204;-88
2021/09/11 04:26:13;;;;;;;30.43;16.93;;;;;;;;;;4906404;29;20221;-88
2021/09/11 04:28:39;;;;;;;36.47;18.63;;;;;;;;;;4909709;29;20205;-92
2021/09/11 04:31:04;;;;;;;31.50;17.90;;;10.80;99.90;;;;;;4868760;29;20678;-91
2021/09/11 04:33:31;;;;;;;31.63;16.57;;;;;;;;;;4898752;29;20276;-90
2021/09/11 04:35:57;;;;;;;40.00;18.00;;;;;;;;;;4886612;29;20212;-92
2021/09/11 04:38:22;;;;;;;33.08;17.83;;;10.60;99.90;;;;;;4903204;29;20200;-91
2021/09/11 04:40:48;;;;;;;29.93;17.80;;;;;;;;;;4887358;29;20200;-91
2021/09/11 04:43:14;;;;;;;32.23;18.30;;;11.10;99.90;;;;;;4884774;29;20739;-91
2021/09/11 04:45:40;;;;;;;30.60;17.90;;;;;;;;;;4869970;29;20343;-91
2021/09/11 04:48:06;;;;;;;34.60;19.43;;;11.00;99.90;;;;;;4901012;29;20263;-92
2021/09/11 04:50:32;;;;;;;42.23;20.17;;;11.00;99.90;;;;;;4881276;29;20260;-91
2021/09/11 04:52:58;;;;;;;39.03;19.27;;;10.80;99.90;;;;;;4880894;29;20220;-91
2021/09/11 04:55:24;;;;;;;35.70;19.13;;;;;;;;;;4867749;29;20230;-91
2021/09/11 04:57:50;;;;;;;32.90;19.58;;;11.30;99.90;;;;;;4898617;29;20185;-91
2021/09/11 05:00:16;;;;;;;37.67;20.20;;;;;;;;;;4882727;29;20247;-91
2021/09/11 05:02:42;;;;;;;39.27;20.20;;;;;;;;;;4882782;29;20192;-92
2021/09/11 05:05:08;;;;;;;40.27;20.47;;;;;;;;;;4914658;29;20199;-95
2021/09/11 05:07:34;;;;;;;34.63;20.97;;;11.40;99.90;;;;;;4884417;29;20228;-93
2021/09/11 05:10:00;;;;;;;39.27;20.50;;;;;;;;;;4896609;29;20200;-90
2021/09/11 05:12:26;;;;;;;39.92;20.60;;;11.50;99.90;;;;;;4884677;29;20197;-91
2021/09/11 05:14:52;;;;;;;35.58;20.60;;;11.30;99.90;;;;;;4866099;29;20231;-90
2021/09/11 05:17:17;;;;;;;37.35;20.70;;;11.70;99.90;;;;;;4901802;29;20195;-91
2021/09/11 05:19:43;;;;;;;46.47;21.67;;;11.60;99.90;;;;;;4864212;29;20566;-91
2021/09/11 05:22:09;;;;;;;41.30;19.83;;;;;;;;;;4896771;29;20666;-90
2021/09/11 05:24:35;;;;;;;39.25;21.10;;;11.80;99.90;;;;;;4878626;29;20245;-93
2021/09/11 05:27:00;;;;;;;35.78;21.52;;;12.00;99.90;;;;;;4880147;29;20212;-92
2021/09/11 05:29:26;;;;;;;46.58;23.35;;;;;;;;;;4892829;29;20211;-92
2021/09/11 05:31:52;;;;;;;39.42;21.70;;;12.20;99.90;;;;;;4896633;29;20185;-92
2021/09/11 05:34:18;;;;;;;36.53;20.75;;;;;;;;;;4900240;28;20203;-86
2021/09/11 05:36:44;;;;;;;31.63;20.33;;;12.40;99.90;;;;;;4936646;28;20260;-91
2021/09/11 05:39:10;;;;;;;38.17;22.02;;;;;;;;;;4900813;29;20284;-94
2021/09/11 05:41:36;;;;;;;43.80;21.63;;;;;;;;;;4886050;29;20192;-91
2021/09/11 05:44:02;;;;;;;35.45;20.30;;;12.60;99.90;;;;;;4894283;29;20181;-93
2021/09/11 05:46:28;;;;;;;35.53;20.98;;;12.90;99.90;;;;;;4902514;29;20225;-94
2021/09/11 05:48:54;;;;;;;38.58;21.95;;;;;;;;;;4863728;29;20324;-93
2021/09/11 05:51:20;;;;;;;44.67;22.75;;;13.20;99.90;;;;;;4883514;29;20269;-90
2021/09/11 05:53:46;;;;;;;39.60;22.73;;;13.80;99.90;;;;;;4882055;29;20740;-91
2021/09/11 05:56:12;;;;;;;44.53;21.70;;;;;;;;;;4880485;29;20190;-89
2021/09/11 05:58:38;;;;;;;33.35;20.85;;;13.50;99.90;;;;;;4879885;29;20181;-93
2021/09/11 06:01:04;;;;;;;46.78;22.75;;;13.90;99.90;;;;;;4879581;29;20557;-94
2021/09/11 06:03:30;;;;;;;34.50;20.17;;;;;;;;;;4871570;29;20185;-93
2021/09/11 06:05:55;;;;;;;41.42;22.15;;;14.10;99.90;;;;;;4890856;29;20218;-93
2021/09/11 06:08:21;;;;;;;44.47;23.40;;;;;;;;;;4884054;29;20276;-92
2021/09/11 06:10:47;;;;;;;19.77;13.15;;;14.30;99.90;;;;;;4887512;29;20217;-92
2021/09/11 06:13:13;;;;;;;24.35;14.10;;;;;;;;;;4899060;29;20710;-94
2021/09/11 06:15:39;;;;;;;24.88;12.48;;;15.00;99.90;;;;;;4889867;29;20210;-95
2021/09/11 06:18:04;;;;;;;25.73;13.68;;;15.10;99.90;;;;;;4885638;29;20194;-93
2021/09/11 06:20:30;;;;;;;23.85;12.88;;;15.10;99.90;;;;;;4879297;29;20193;-90
2021/09/11 06:22:56;;;;;;;28.33;13.48;;;;;;;;;;4905823;29;20995;-89
2021/09/11 06:25:22;;;;;;;20.10;13.35;;;15.40;99.90;;;;;;4905795;29;20185;-88
2021/09/11 06:27:54;;;;;;;22.25;12.68;;;;;;;;;;4890367;29;20221;-88
2021/09/11 06:30:20;;;;;;;20.42;11.95;;;;;;;;;;4893799;29;20250;-87
2021/09/11 06:32:46;;;;;;;25.17;12.85;;;;;;;;;;4896997;29;20185;-88
2021/09/11 06:35:12;;;;;;;21.23;12.65;;;15.80;99.90;;;;;;4904053;29;20197;-90
2021/09/11 06:37:38;;;;;;;21.48;12.25;;;;;;;;;;4901345;29;20225;-89
2021/09/11 06:40:04;;;;;;;20.83;12.10;;;16.10;99.90;;;;;;4899674;29;20264;-89
2021/09/11 06:42:30;;;;;;;25.52;11.45;;;16.70;99.90;;;;;;4900392;29;20273;-88
2021/09/11 06:44:56;;;;;;;18.77;12.18;;;;;;;;;;4902335;29;20220;-90
2021/09/11 06:47:22;;;;;;;19.75;12.15;;;;;;;;;;4903993;29;20225;-86
2021/09/11 06:49:48;;;;;;;19.90;11.65;;;;;;;;;;4905230;29;20661;-89
2021/09/11 06:52:14;;;;;;;17.52;10.50;;;;;;;;;;4904546;29;20201;-88
2021/09/11 06:54:39;;;;;;;19.98;11.70;;;17.30;99.90;;;;;;4907317;29;20339;-88
2021/09/11 06:57:05;;;;;;;16.98;10.50;;;;;;;;;;4898587;29;20638;-89
2021/09/11 06:59:31;;;;;;;25.83;11.43;;;;;;;;;;4917074;29;20199;-89
2021/09/11 07:01:57;;;;;;;15.88;9.60;;;17.60;99.90;;;;;;4908029;29;20200;-88
2021/09/11 07:04:23;;;;;;;16.75;9.70;;;;;;;;;;4905739;29;20188;-85
2021/09/11 07:06:49;;;;;;;26.73;10.07;;;18.20;99.90;;;;;;4905285;29;20304;-88
2021/09/11 07:09:15;;;;;;;14.45;9.80;;;;;;;;;;4885312;29;20283;-89
2021/09/11 07:11:41;;;;;;;16.02;8.48;;;17.90;99.90;;;;;;4919253;29;20196;-88
2021/09/11 07:14:08;;;;;;;13.70;8.63;;;18.10;99.90;;;;;;4920759;29;20180;-91
2021/09/11 07:16:34;;;;;;;14.82;8.63;;;18.30;99.90;;;;;;4922858;29;20192;-86
2021/09/11 07:19:00;;;;;;;14.80;8.43;;;18.40;99.90;;;;;;4903602;29;20256;-89
2021/09/11 07:21:26;;;;;;;13.48;8.88;;;;;;;;;;4901961;29;20193;-88
2021/09/11 07:23:52;;;;;;;15.95;7.85;;;18.60;99.90;;;;;;4887268;29;20192;-94
2021/09/11 07:26:19;;;;;;;20.10;8.70;;;18.90;99.90;;;;;;4900032;29;20280;-87
2021/09/11 07:28:49;;;;;;;13.63;7.78;;;18.90;99.90;;;;;;4897773;29;20201;-89
2021/09/11 07:31:15;;;;;;;9.18;6.45;;;19.20;99.90;;;;;;4899428;29;20272;-90
2021/09/11 07:33:42;;;;;;;14.57;7.38;;;18.80;99.90;;;;;;4884371;29;20248;-92
2021/09/11 07:36:08;;;;;;;16.45;7.63;;;19.20;99.90;;;;;;4900610;29;20205;-90
2021/09/11 07:38:35;;;;;;;13.60;7.28;;;19.20;99.90;;;;;;4883477;29;20181;-92
2021/09/11 07:41:02;;;;;;;11.27;7.10;;;19.40;99.90;;;;;;4900453;29;20185;-90
2021/09/11 07:43:28;;;;;;;10.93;6.97;;;19.50;99.90;;;;;;4869262;29;20192;-90
2021/09/11 07:45:54;;;;;;;11.10;5.97;;;19.60;99.90;;;;;;4883329;29;20295;-90
2021/09/11 07:48:20;;;;;;;16.65;6.20;;;;;;;;;;4899645;29;20671;-90
2021/09/11 07:50:46;;;;;;;9.60;6.18;;;;;;;;;;5073744;23;20220;-86
2021/09/11 07:53:14;;;;;;;12.52;6.75;;;;;;;;;;5183888;23;20243;-85
2021/09/11 07:55:40;;;;;;;16.13;7.18;;;;;;;;;;5057216;23;20255;-88
2021/09/11 07:58:05;;;;;;;14.73;7.50;;;19.90;99.90;;;;;;4888059;29;20201;-88
2021/09/11 08:00:31;;;;;;;16.83;6.95;;;19.80;99.90;;;;;;4899916;29;20196;-90
2021/09/11 08:02:57;;;;;;;14.95;7.28;;;20.10;99.90;;;;;;4900062;29;20217;-89
2021/09/11 08:05:24;;;;;;;18.23;7.63;;;20.80;99.90;;;;;;4897371;29;20210;-90
2021/09/11 08:07:51;;;;;;;10.77;6.70;;;;;;;;;;4907839;29;20227;-90
2021/09/11 08:10:17;;;;;;;14.68;6.93;;;20.50;99.90;;;;;;4903314;29;20185;-87
2021/09/11 08:12:43;;;;;;;9.63;7.07;;;;;;;;;;4899887;29;20201;-89
2021/09/11 08:15:09;;;;;;;13.77;7.47;;;20.40;99.90;;;;;;4872884;29;20193;-85
2021/09/11 08:17:36;;;;;;;19.85;7.85;;;20.80;99.90;;;;;;4907684;29;20181;-87
2021/09/11 08:20:03;;;;;;;14.77;7.57;;;21.00;99.90;;;;;;4895522;29;20185;-88
2021/09/11 08:22:29;;;;;;;11.05;7.60;;;20.80;99.90;;;;;;4900710;29;20214;-90
2021/09/11 08:24:56;;;;;;;15.45;7.55;;;21.30;99.90;;;;;;4901036;29;20213;-89
2021/09/11 08:27:22;;;;;;;14.80;7.65;;;21.20;99.90;;;;;;4901494;29;20280;-87
2021/09/11 08:29:48;;;;;;;12.63;7.35;;;20.70;99.90;;;;;;4903472;29;20181;-89
2021/09/11 08:32:14;;;;;;;13.82;7.63;;;21.50;99.90;;;;;;4888991;29;20181;-88
2021/09/11 08:34:39;;;;;;;13.60;7.03;;;21.60;99.90;;;;;;4885599;29;20193;-88
2021/09/11 08:37:05;;;;;;;9.75;7.00;;;21.20;99.90;;;;;;4897431;29;20185;-87
2021/09/11 08:39:31;;;;;;;13.73;6.90;;;;;;;;;;4864933;29;20659;-86
2021/09/11 08:41:57;;;;;;;11.90;6.35;;;;;;;;;;4898034;29;20534;-88
2021/09/11 08:44:25;;;;;;;15.10;7.15;;;21.40;99.90;;;;;;4900155;29;20189;-90
2021/09/11 08:46:52;;;;;;;15.10;7.47;;;21.80;99.90;;;;;;4906320;29;20264;-90
2021/09/11 08:49:18;;;;;;;10.52;7.20;;;;;;;;;;4881832;29;20634;-89
2021/09/11 08:51:47;;;;;;;12.52;7.53;;;22.20;99.90;;;;;;4904348;29;20185;-90
2021/09/11 08:54:18;;;;;;;16.48;6.70;;;;;;;;;;4911731;29;20203;-90
2021/09/11 08:56:45;;;;;;;13.80;7.00;;;22.10;99.90;;;;;;4904041;29;20244;-90
2021/09/11 08:59:17;;;;;;;16.38;6.90;;;22.10;99.90;;;;;;4907127;29;20169;-90
2021/09/11 09:01:43;;;;;;;16.35;6.63;;;22.20;99.90;;;;;;4923774;29;20212;-91
2021/09/11 09:04:09;;;;;;;10.32;6.75;;;;;;;;;;4912756;29;20244;-89
2021/09/11 09:06:36;;;;;;;17.73;9.13;;;22.00;99.90;;;;;;4915706;29;20216;-89
2021/09/11 09:11:42;;;;;;;15.23;7.32;;;22.60;99.90;;;;;;4929282;23;20252;-89
2021/09/11 09:14:12;;;;;;;12.85;6.63;;;22.60;99.90;;;;;;4894382;29;20263;-91
2021/09/11 09:16:51;;;;;;;11.77;6.78;;;22.70;99.90;;;;;;4914134;29;20269;-87
2021/09/11 09:19:20;;;;;;;16.83;9.43;;;22.40;99.90;;;;;;4962223;23;20251;-90
2021/09/11 09:21:48;;;;;;;9.75;6.97;;;23.00;99.90;;;;;;4900421;29;20218;-90
2021/09/11 09:24:26;;;;;;;14.00;7.43;;;23.00;99.90;;;;;;4904408;29;20190;-90
2021/09/11 09:26:52;;;;;;;11.82;6.43;;;;;;;;;;4904194;29;20232;-90
2021/09/11 09:29:19;;;;;;;18.02;6.90;;;23.30;99.90;;;;;;5121136;23;20335;-94
2021/09/11 09:31:46;;;;;;;15.18;7.72;;;23.40;99.90;;;;;;4933712;23;20275;-87
2021/09/11 09:34:32;;;;;;;12.73;6.75;;;23.00;99.90;;;;;;5095371;23;20274;-92
2021/09/11 09:37:01;;;;;;;13.57;7.50;;;23.50;99.90;;;;;;4893428;29;20260;-90
2021/09/11 09:39:27;;;;;;;11.75;6.10;;;23.40;99.90;;;;;;4893061;29;20252;-92
2021/09/11 09:42:01;;;;;;;11.70;7.18;;;23.90;99.90;;;;;;4871069;29;20182;-90
2021/09/11 09:44:27;;;;;;;12.98;6.78;;;;;;;;;;4907234;29;20721;-92
2021/09/11 09:46:53;;;;;;;11.60;7.25;;;;;;;;;;4878097;29;20232;-91
2021/09/11 09:49:22;;;;;;;13.25;6.47;;;24.00;99.90;;;;;;4890828;29;20666;-91
2021/09/11 09:51:49;;;;;;;15.00;7.22;;;24.00;99.90;;;;;;4893056;29;20182;-90
2021/09/11 09:54:16;;;;;;;14.02;7.25;;;24.00;99.90;;;;;;4893113;29;20200;-90
2021/09/11 09:56:42;;;;;;;19.23;7.35;;;24.20;99.90;;;;;;4889423;29;20276;-91
2021/09/11 09:59:09;;;;;;;12.20;7.00;;;24.30;99.90;;;;;;4905020;29;20245;-91
2021/09/11 10:01:35;;;;;;;14.38;6.80;;;24.40;99.90;;;;;;4885853;29;20188;-91
2021/09/11 10:04:18;;;;;;;8.32;6.05;;;24.60;99.90;;;;;;4888460;29;20189;-92
2021/09/11 10:06:48;;;;;;;8.77;5.82;;;24.40;99.90;;;;;;4888364;29;20252;-93
2021/09/11 10:09:15;;;;;;;13.40;6.45;;;24.10;99.90;;;;;;4909899;29;20662;-90
2021/09/11 10:11:49;;;;;;;13.07;6.53;;;24.20;99.90;;;;;;4893562;29;20190;-87
2021/09/11 10:14:19;;;;;;;11.20;6.07;;;24.20;99.90;;;;;;4898084;29;20173;-94
2021/09/11 10:16:55;;;;;;;10.32;6.00;;;24.30;99.90;;;;;;4895070;29;20205;-91
2021/09/11 10:19:23;;;;;;;13.40;5.63;;;24.70;99.90;;;;;;4898400;29;20190;-91
2021/09/11 10:21:52;;;;;;;8.45;5.40;;;24.40;98.90;;;;;;4921998;29;20188;-96
2021/09/11 10:24:18;;;;;;;11.38;5.97;;;;;;;;;;4913439;29;20181;-94
2021/09/11 10:26:47;;;;;;;8.30;5.65;;;;;;;;;;4915951;29;20559;-93
2021/09/11 10:29:32;;;;;;;12.32;5.38;;;24.10;99.90;;;;;;4917968;29;20197;-95
2021/09/11 10:31:59;;;;;;;7.57;4.90;;;24.70;97.30;;;;;;4894379;29;20189;-94
2021/09/11 10:34:44;;;;;;;9.55;5.82;;;24.70;97.60;;;;;;4883597;29;20237;-92
2021/09/11 10:37:10;;;;;;;11.40;5.22;;;24.80;96.70;;;;;;4894009;29;20721;-93
2021/09/11 10:39:36;;;;;;;8.73;5.25;;;;;;;;;;4898906;29;20185;-93
2021/09/11 10:42:06;;;;;;;12.75;6.05;;;25.20;97.90;;;;;;4903334;29;20193;-93
2021/09/11 10:44:33;;;;;;;12.98;6.15;;;;;;;;;;4894284;29;20185;-93
2021/09/11 10:47:10;;;;;;;8.70;5.80;;;25.30;95.90;;;;;;4909025;29;20213;-90
2021/09/11 10:49:37;;;;;;;9.80;5.50;;;25.60;93.80;;;;;;4908459;29;20181;-89
2021/09/11 10:52:10;;;;;;;10.48;5.65;;;25.60;95.00;;;;;;4905775;29;20185;-90
2021/09/11 10:54:41;;;;;;;7.97;5.18;;;25.70;93.60;;;;;;5294537;23;20316;-93
2021/09/11 10:57:16;;;;;;;10.23;5.47;;;25.60;94.40;;;;;;4986592;23;20227;-90
2021/09/11 10:59:46;;;;;;;8.05;5.72;;;25.60;93.20;;;;;;4928436;29;20192;-92
2021/09/11 11:02:31;;;;;;;9.00;5.57;;;25.60;93.30;;;;;;5208673;23;20248;-94
2021/09/11 11:05:10;;;;;;;12.90;5.32;;;25.50;91.30;;;;;;5145603;23;20223;-94
2021/09/11 11:07:43;;;;;;;14.82;5.72;;;25.20;92.90;;;;;;4953263;23;20261;-91
2021/09/11 11:10:14;;;;;;;10.32;6.38;;;25.30;92.60;;;;;;4903854;29;20177;-92
2021/09/11 11:12:44;;;;;;;16.17;5.60;;;25.20;91.60;;;;;;4884242;29;20190;-95
2021/09/11 11:15:17;;;;;;;11.55;6.03;;;25.00;92.30;;;;;;4876370;29;20182;-92
2021/09/11 11:17:45;;;;;;;9.48;5.68;;;25.10;92.20;;;;;;4882959;29;20648;-94
2021/09/11 11:20:12;;;;;;;8.93;5.13;;;25.40;93.90;;;;;;4893239;29;20182;-92
2021/09/11 11:22:40;;;;;;;14.30;5.97;;;25.10;91.70;;;;;;4871159;29;20188;-93
2021/09/11 11:25:13;;;;;;;7.22;4.93;;;25.10;90.40;;;;;;4906209;29;20197;-93
2021/09/11 11:27:39;;;;;;;8.07;4.55;;;;;;;;;;4889494;29;20232;-90
2021/09/11 11:30:08;;;;;;;13.40;6.45;;;24.90;91.30;;;;;;4868438;29;20190;-93
2021/09/11 11:32:38;;;;;;;14.20;5.40;;;;;;;;;;4884931;29;20220;-93
2021/09/11 11:35:06;;;;;;;9.45;4.32;;;24.90;91.20;;;;;;4886060;29;20193;-91
2021/09/11 11:37:34;;;;;;;13.23;6.35;;;24.70;90.50;;;;;;4928497;23;20245;-96
2021/09/11 11:40:05;;;;;;;92.78;8.88;;;24.70;90.60;;;;;;4890807;29;20667;-94
2021/09/11 11:42:34;;;;;;;9.30;4.70;;;;;;;;;;4881597;29;20190;-94
2021/09/11 11:45:03;;;;;;;14.10;5.53;;;24.60;90.40;;;;;;4889105;29;20178;-95
2021/09/11 11:47:52;;;;;;;10.05;4.40;;;24.50;90.90;;;;;;4904162;29;20219;-93
2021/09/11 11:50:30;;;;;;;12.40;4.43;;;24.50;88.40;;;;;;4891005;29;20181;-93
2021/09/11 11:53:03;;;;;;;12.82;5.15;;;24.50;90.00;;;;;;4893843;29;20187;-89
2021/09/11 11:55:31;;;;;;;7.72;4.55;;;24.60;87.30;;;;;;4882439;29;20233;-91
2021/09/11 11:58:18;;;;;;;12.60;5.18;;;24.60;90.80;;;;;;4886967;29;20246;-93
2021/09/11 12:00:49;;;;;;;7.38;4.28;;;24.70;89.70;;;;;;4871565;29;20619;-94
2021/09/11 12:03:44;;;;;;;10.13;5.20;;;24.70;90.10;;;;;;4886173;29;20183;-94
2021/09/11 12:06:19;;;;;;;12.73;5.35;;;24.70;93.60;;;;;;4891885;29;20212;-96
2021/09/11 12:08:46;;;;;;;15.82;4.97;;;;;;;;;;4894363;29;20721;-93
2021/09/11 12:11:20;;;;;;;12.07;4.95;;;25.00;88.80;;;;;;4888325;29;20182;-95
2021/09/11 12:13:52;;;;;;;10.77;5.03;;;25.10;92.30;;;;;;4901246;29;20316;-94
2021/09/11 12:16:18;;;;;;;10.07;5.32;;;;;;;;;;4893097;29;20261;-93
2021/09/11 12:18:44;;;;;;;10.43;4.72;;;25.00;89.10;;;;;;4899369;29;20263;-93
2021/09/11 12:21:12;;;;;;;9.02;5.22;;;25.10;89.20;;;;;;4884943;29;20671;-91
2021/09/11 12:23:39;;;;;;;11.30;5.80;;;25.20;87.20;;;;;;4883137;29;20662;-95
2021/09/11 12:26:07;;;;;;;10.98;5.00;;;25.10;87.80;;;;;;4879837;29;20694;-94
2021/09/11 12:28:50;;;;;;;9.18;4.97;;;25.30;88.60;;;;;;4886363;29;20205;-95
2021/09/11 12:31:18;;;;;;;8.88;4.75;;;25.40;89.50;;;;;;4882026;29;20192;-94
2021/09/11 12:33:55;;;;;;;9.10;4.88;;;25.60;87.30;;;;;;4883787;29;20189;-95
2021/09/11 12:36:36;;;;;;;6.57;4.93;;;25.90;89.10;;;;;;4881417;29;20189;-95
2021/09/11 12:39:22;;;;;;;11.38;5.35;;;25.90;89.60;;;;;;4880878;29;20240;-94
2021/09/11 12:41:51;;;;;;;7.78;4.85;;;26.00;86.50;;;;;;4879578;29;20185;-94
2021/09/11 12:44:18;;;;;;;5.75;4.35;;;26.00;83.20;;;;;;4879062;29;20182;-93
2021/09/11 12:46:55;;;;;;;11.60;4.57;;;25.80;81.10;;;;;;4879058;29;20262;-94
2021/09/11 12:49:26;;;;;;;8.15;4.65;;;25.80;84.70;;;;;;4881226;29;20178;-91
2021/09/11 12:51:53;;;;;;;7.60;4.60;;;25.80;85.20;;;;;;4878737;29;20185;-94
2021/09/11 12:54:21;;;;;;;7.60;4.53;;;26.10;83.40;;;;;;4880383;29;20214;-96
2021/09/11 12:56:50;;;;;;;6.93;5.03;;;26.40;86.10;;;;;;4866529;29;20208;-94
2021/09/11 12:59:16;;;;;;;9.57;5.35;;;26.50;90.30;;;;;;4885856;29;20186;-91
2021/09/11 13:01:43;;;;;;;10.35;5.00;;;26.30;84.60;;;;;;4892718;29;20209;-89
2021/09/11 13:04:11;;;;;;;8.13;4.47;;;26.40;80.60;;;;;;4895120;29;20190;-94
2021/09/11 13:06:39;;;;;;;6.38;3.97;;;26.30;81.20;;;;;;4897243;29;20189;-93